Strona główna
METAR-TAF:

METAR-TAF

Lotnisko :

Valley, Walia

Szerokość geograficzna: 53-15N, Długość geograficzna: 004-32W, wysokość: 1 m

Aktualna obserwacja pogody

Raport powstał 56 minut temu, godzina 02:50 UTC
Wiatr 10 kt od południowy wschód
Temperatura 3°C
Wilgotność 75%
Ciśnienie 995 hPa
Widzialność 10 km lub więcej

METAR: EGOV 240250Z AUTO 13010KT 9999 OVC070/// 03/M01 Q0995

czas: 03:46 (03:46 UTC)


TAF: brakujący

Obserwacja i prognoza pogody dla ponad 4000 lotnisk (raport METAR i TAF).

Dostępne stacje oznaczono żółtymi i czerwonymi punktami na mapie.

Najedź kursorem aby zobaczyć nazwę stacji.

Kliknij aby zobaczyć obserwacje i prognozy pogody.

Aby zmienić mapę: kliknij na zielony przycisk z czarnym krzyżykiem, aby powiększyć; na zielony przycisk z myślnikiem, aby pomniejszyć; na zielone strzałki, aby przejść do map sąsiednich.


METAR-TAF: